sensor_id;sensor_type;location;lat;lon;timestamp;pressure;altitude;pressure_sealevel;temperature;humidity
33845;BME280;20145;43.118;25.694;2023-05-07T00:01:14;99815.59;;;11.03;93.48
33845;BME280;20145;43.118;25.694;2023-05-07T00:03:39;99819.91;;;11.04;93.14
33845;BME280;20145;43.118;25.694;2023-05-07T00:06:05;99821.66;;;11.00;93.88
33845;BME280;20145;43.118;25.694;2023-05-07T00:08:31;99823.41;;;10.95;93.69
33845;BME280;20145;43.118;25.694;2023-05-07T00:10:57;99817.41;;;10.90;94.07
33845;BME280;20145;43.118;25.694;2023-05-07T00:13:22;99811.50;;;10.76;93.48
33845;BME280;20145;43.118;25.694;2023-05-07T00:15:48;99802.06;;;10.64;93.89
33845;BME280;20145;43.118;25.694;2023-05-07T00:18:13;99811.56;;;10.62;94.53
33845;BME280;20145;43.118;25.694;2023-05-07T00:20:39;99806.47;;;10.49;93.59
33845;BME280;20145;43.118;25.694;2023-05-07T00:23:04;99810.78;;;10.46;94.85
33845;BME280;20145;43.118;25.694;2023-05-07T00:25:30;99811.66;;;10.39;94.93
33845;BME280;20145;43.118;25.694;2023-05-07T00:27:55;99806.56;;;10.31;94.91
33845;BME280;20145;43.118;25.694;2023-05-07T00:30:21;99813.44;;;10.29;96.43
33845;BME280;20145;43.118;25.694;2023-05-07T00:32:46;99811.72;;;10.28;96.02
33845;BME280;20145;43.118;25.694;2023-05-07T00:35:14;99769.69;;;10.04;96.71
33845;BME280;20145;43.118;25.694;2023-05-07T00:37:39;99808.28;;;10.27;95.33
33845;BME280;20145;43.118;25.694;2023-05-07T00:40:06;99801.41;;;10.22;94.75
33845;BME280;20145;43.118;25.694;2023-05-07T00:42:33;99796.28;;;10.20;95.09
33845;BME280;20145;43.118;25.694;2023-05-07T00:44:58;99794.56;;;10.18;95.08
33845;BME280;20145;43.118;25.694;2023-05-07T00:47:25;99782.56;;;10.09;94.50
33845;BME280;20145;43.118;25.694;2023-05-07T00:49:51;99791.13;;;10.13;95.54
33845;BME280;20145;43.118;25.694;2023-05-07T00:52:17;99792.88;;;10.12;94.60
33845;BME280;20145;43.118;25.694;2023-05-07T00:54:45;99785.16;;;10.04;94.70
33845;BME280;20145;43.118;25.694;2023-05-07T00:57:11;99792.03;;;10.07;95.27
33845;BME280;20145;43.118;25.694;2023-05-07T00:59:37;99789.47;;;10.04;95.39
33845;BME280;20145;43.118;25.694;2023-05-07T01:02:03;99790.31;;;10.03;96.17
33845;BME280;20145;43.118;25.694;2023-05-07T01:04:29;99784.34;;;9.98;95.81
33845;BME280;20145;43.118;25.694;2023-05-07T01:06:55;99781.75;;;9.96;96.70
33845;BME280;20145;43.118;25.694;2023-05-07T01:09:23;99781.75;;;9.93;96.28
33845;BME280;20145;43.118;25.694;2023-05-07T01:11:49;99780.88;;;9.97;95.70
33845;BME280;20145;43.118;25.694;2023-05-07T01:14:16;99757.75;;;9.79;95.83
33845;BME280;20145;43.118;25.694;2023-05-07T01:16:42;99787.78;;;9.92;94.79
33845;BME280;20145;43.118;25.694;2023-05-07T01:19:08;99759.47;;;9.80;95.35
33845;BME280;20145;43.118;25.694;2023-05-07T01:21:37;99781.78;;;9.87;94.11
33845;BME280;20145;43.118;25.694;2023-05-07T01:24:04;99776.63;;;9.82;94.66
33845;BME280;20145;43.118;25.694;2023-05-07T01:26:30;99766.34;;;9.75;93.97
33845;BME280;20145;43.118;25.694;2023-05-07T01:28:56;99772.38;;;9.74;94.76
33845;BME280;20145;43.118;25.694;2023-05-07T01:31:23;99770.66;;;9.71;94.71
33845;BME280;20145;43.118;25.694;2023-05-07T01:33:50;99771.53;;;9.67;94.69
33845;BME280;20145;43.118;25.694;2023-05-07T01:36:17;99768.13;;;9.62;94.60
33845;BME280;20145;43.118;25.694;2023-05-07T01:38:44;99764.66;;;9.68;94.34
33845;BME280;20145;43.118;25.694;2023-05-07T01:41:11;99765.53;;;9.64;94.44
33845;BME280;20145;43.118;25.694;2023-05-07T01:43:40;99764.66;;;9.61;94.16
33845;BME280;20145;43.118;25.694;2023-05-07T01:46:07;99768.09;;;9.60;93.49
33845;BME280;20145;43.118;25.694;2023-05-07T01:48:35;99764.69;;;9.57;94.97
33845;BME280;20145;43.118;25.694;2023-05-07T01:51:01;99771.56;;;9.53;95.08
33845;BME280;20145;43.118;25.694;2023-05-07T01:53:27;99765.56;;;9.48;94.59
33845;BME280;20145;43.118;25.694;2023-05-07T01:55:53;99762.13;;;9.43;94.99
33845;BME280;20145;43.118;25.694;2023-05-07T01:58:19;99755.25;;;9.42;95.55
33845;BME280;20145;43.118;25.694;2023-05-07T02:00:44;99748.41;;;9.35;95.56
33845;BME280;20145;43.118;25.694;2023-05-07T02:03:10;99757.00;;;9.37;95.42
33845;BME280;20145;43.118;25.694;2023-05-07T02:05:35;99743.28;;;9.26;94.52
33845;BME280;20145;43.118;25.694;2023-05-07T02:08:01;99751.03;;;9.26;94.55
33845;BME280;20145;43.118;25.694;2023-05-07T02:10:26;99752.72;;;9.25;95.21
33845;BME280;20145;43.118;25.694;2023-05-07T02:12:52;99742.44;;;9.14;94.57
33845;BME280;20145;43.118;25.694;2023-05-07T02:15:17;99761.31;;;9.18;94.72
33845;BME280;20145;43.118;25.694;2023-05-07T02:18:09;99756.16;;;9.21;95.20
33845;BME280;20145;43.118;25.694;2023-05-07T02:20:35;99744.13;;;9.17;94.95
33845;BME280;20145;43.118;25.694;2023-05-07T02:23:00;99753.59;;;9.15;94.08
33845;BME280;20145;43.118;25.694;2023-05-07T02:25:26;99751.00;;;9.06;94.24
33845;BME280;20145;43.118;25.694;2023-05-07T02:27:51;99765.63;;;9.04;94.13
33845;BME280;20145;43.118;25.694;2023-05-07T02:30:17;99767.31;;;8.97;94.04
33845;BME280;20145;43.118;25.694;2023-05-07T02:32:43;99762.16;;;8.94;94.53
33845;BME280;20145;43.118;25.694;2023-05-07T02:35:09;99749.28;;;8.86;94.65
33845;BME280;20145;43.118;25.694;2023-05-07T02:37:35;99750.16;;;8.85;95.07
33845;BME280;20145;43.118;25.694;2023-05-07T02:40:00;99765.59;;;8.91;95.06
33845;BME280;20145;43.118;25.694;2023-05-07T02:42:26;99751.03;;;8.80;94.75
33845;BME280;20145;43.118;25.694;2023-05-07T02:44:52;99757.88;;;8.81;94.77
33845;BME280;20145;43.118;25.694;2023-05-07T02:47:18;99760.44;;;8.84;94.74
33845;BME280;20145;43.118;25.694;2023-05-07T02:49:43;99747.59;;;8.76;94.38
33845;BME280;20145;43.118;25.694;2023-05-07T02:52:09;99757.03;;;8.79;93.86
33845;BME280;20145;43.118;25.694;2023-05-07T02:54:34;99766.47;;;8.81;94.20
33845;BME280;20145;43.118;25.694;2023-05-07T02:57:00;99764.75;;;8.82;94.99
33845;BME280;20145;43.118;25.694;2023-05-07T02:59:28;99756.16;;;8.70;94.97
33845;BME280;20145;43.118;25.694;2023-05-07T03:01:54;99774.16;;;8.86;94.80
33845;BME280;20145;43.118;25.694;2023-05-07T03:04:19;99775.91;;;8.90;95.42
33845;BME280;20145;43.118;25.694;2023-05-07T03:06:45;99776.75;;;8.89;95.13
33845;BME280;20145;43.118;25.694;2023-05-07T03:09:11;99769.88;;;8.89;95.45
33845;BME280;20145;43.118;25.694;2023-05-07T03:11:36;99778.47;;;8.96;95.11
33845;BME280;20145;43.118;25.694;2023-05-07T03:14:02;99773.31;;;8.98;95.83
33845;BME280;20145;43.118;25.694;2023-05-07T03:16:28;99763.03;;;8.94;95.25
33845;BME280;20145;43.118;25.694;2023-05-07T03:18:53;99767.34;;;8.96;95.21
33845;BME280;20145;43.118;25.694;2023-05-07T03:21:19;99757.88;;;8.88;94.80
33845;BME280;20145;43.118;25.694;2023-05-07T03:23:44;99763.88;;;8.95;94.79
33845;BME280;20145;43.118;25.694;2023-05-07T03:26:10;99756.16;;;8.90;94.66
33845;BME280;20145;43.118;25.694;2023-05-07T03:28:36;99763.88;;;8.93;94.00
33845;BME280;20145;43.118;25.694;2023-05-07T03:31:02;99761.31;;;8.93;94.62
33845;BME280;20145;43.118;25.694;2023-05-07T03:33:27;99762.16;;;8.97;94.53
33845;BME280;20145;43.118;25.694;2023-05-07T03:35:53;99770.75;;;9.10;94.58
33845;BME280;20145;43.118;25.694;2023-05-07T03:38:18;99767.31;;;9.14;94.28
33845;BME280;20145;43.118;25.694;2023-05-07T03:40:44;99777.59;;;9.32;94.24
33845;BME280;20145;43.118;25.694;2023-05-07T03:43:10;99776.75;;;9.43;94.35
33845;BME280;20145;43.118;25.694;2023-05-07T03:45:35;99781.84;;;9.58;94.59
33845;BME280;20145;43.118;25.694;2023-05-07T03:48:01;99773.25;;;9.71;93.78
33845;BME280;20145;43.118;25.694;2023-05-07T03:50:26;99768.03;;;9.88;94.06
33845;BME280;20145;43.118;25.694;2023-05-07T03:52:52;99780.00;;;10.09;92.96
33845;BME280;20145;43.118;25.694;2023-05-07T03:55:18;99778.19;;;10.28;93.53
33845;BME280;20145;43.118;25.694;2023-05-07T03:57:43;99785.78;;;10.57;92.02
33845;BME280;20145;43.118;25.694;2023-05-07T04:00:09;99776.00;;;11.04;93.12
33845;BME280;20145;43.118;25.694;2023-05-07T04:02:36;99776.34;;;11.59;89.56
33845;BME280;20145;43.118;25.694;2023-05-07T04:05:01;99781.59;;;12.29;87.47
33845;BME280;20145;43.118;25.694;2023-05-07T04:07:27;99778.28;;;12.81;84.95
33845;BME280;20145;43.118;25.694;2023-05-07T04:09:52;99791.34;;;13.29;81.93
33845;BME280;20145;43.118;25.694;2023-05-07T04:12:18;99788.81;;;13.26;82.18
33845;BME280;20145;43.118;25.694;2023-05-07T04:14:44;99789.25;;;13.51;81.58
33845;BME280;20145;43.118;25.694;2023-05-07T04:17:10;99788.41;;;13.96;79.03
33845;BME280;20145;43.118;25.694;2023-05-07T04:19:36;99802.41;;;14.31;77.34
33845;BME280;20145;43.118;25.694;2023-05-07T04:22:01;99803.88;;;14.44;76.03
33845;BME280;20145;43.118;25.694;2023-05-07T04:24:27;99814.78;;;14.60;76.35
33845;BME280;20145;43.118;25.694;2023-05-07T04:26:52;99806.00;;;14.67;76.09
33845;BME280;20145;43.118;25.694;2023-05-07T04:29:18;99814.97;;;14.91;77.35
33845;BME280;20145;43.118;25.694;2023-05-07T04:31:44;99817.03;;;15.14;75.17
33845;BME280;20145;43.118;25.694;2023-05-07T04:34:10;99811.84;;;15.14;74.81
33845;BME280;20145;43.118;25.694;2023-05-07T04:36:37;99819.31;;;15.26;74.34
33845;BME280;20145;43.118;25.694;2023-05-07T04:39:04;99835.28;;;15.47;74.54
33845;BME280;20145;43.118;25.694;2023-05-07T04:41:29;99813.41;;;15.55;73.16
33845;BME280;20145;43.118;25.694;2023-05-07T04:43:55;99820.19;;;15.61;73.37
33845;BME280;20145;43.118;25.694;2023-05-07T04:46:22;99827.41;;;15.50;74.25
33845;BME280;20145;43.118;25.694;2023-05-07T04:48:49;99830.78;;;15.53;73.10
33845;BME280;20145;43.118;25.694;2023-05-07T04:51:14;99834.97;;;15.25;73.48
33845;BME280;20145;43.118;25.694;2023-05-07T04:53:40;99836.03;;;15.16;74.92
33845;BME280;20145;43.118;25.694;2023-05-07T04:56:05;99837.22;;;15.38;74.19
33845;BME280;20145;43.118;25.694;2023-05-07T04:58:31;99828.84;;;15.60;73.42
33845;BME280;20145;43.118;25.694;2023-05-07T05:00:58;99835.28;;;15.81;74.15
33845;BME280;20145;43.118;25.694;2023-05-07T05:03:23;99832.53;;;15.87;73.14
33845;BME280;20145;43.118;25.694;2023-05-07T05:05:51;99841.81;;;15.96;73.46
33845;BME280;20145;43.118;25.694;2023-05-07T05:08:18;99835.28;;;16.14;72.92
33845;BME280;20145;43.118;25.694;2023-05-07T05:10:43;99844.56;;;16.22;73.69
33845;BME280;20145;43.118;25.694;2023-05-07T05:13:09;99846.06;;;16.31;72.26
33845;BME280;20145;43.118;25.694;2023-05-07T05:15:38;99850.31;;;16.35;72.68
33845;BME280;20145;43.118;25.694;2023-05-07T05:18:04;99851.53;;;16.51;72.37
33845;BME280;20145;43.118;25.694;2023-05-07T05:20:30;99844.50;;;16.55;72.77
33845;BME280;20145;43.118;25.694;2023-05-07T05:22:55;99839.69;;;16.41;72.00
33845;BME280;20145;43.118;25.694;2023-05-07T05:25:21;99854.00;;;16.56;71.87
33845;BME280;20145;43.118;25.694;2023-05-07T05:27:46;99858.94;;;16.65;72.19
33845;BME280;20145;43.118;25.694;2023-05-07T05:30:12;99851.53;;;16.51;72.77
33845;BME280;20145;43.118;25.694;2023-05-07T05:32:38;99855.69;;;16.59;73.39
33845;BME280;20145;43.118;25.694;2023-05-07T05:35:04;99820.75;;;16.36;73.52
33845;BME280;20145;43.118;25.694;2023-05-07T05:37:29;99848.28;;;16.75;72.38
33845;BME280;20145;43.118;25.694;2023-05-07T05:39:56;99852.91;;;16.94;71.84
33845;BME280;20145;43.118;25.694;2023-05-07T05:42:22;99853.31;;;17.09;71.52
33845;BME280;20145;43.118;25.694;2023-05-07T05:44:48;99855.31;;;17.01;71.75
33845;BME280;20145;43.118;25.694;2023-05-07T05:47:14;99857.19;;;16.95;71.75
33845;BME280;20145;43.118;25.694;2023-05-07T05:49:40;99854.06;;;17.12;71.95
33845;BME280;20145;43.118;25.694;2023-05-07T05:52:05;99854.44;;;17.28;70.41
33845;BME280;20145;43.118;25.694;2023-05-07T05:54:31;99853.97;;;17.42;69.23
33845;BME280;20145;43.118;25.694;2023-05-07T05:56:56;99855.28;;;17.55;67.89
33845;BME280;20145;43.118;25.694;2023-05-07T05:59:22;99858.34;;;17.68;67.40
33845;BME280;20145;43.118;25.694;2023-05-07T06:01:48;99855.97;;;17.87;65.76
33845;BME280;20145;43.118;25.694;2023-05-07T06:04:14;99853.91;;;17.97;62.64
33845;BME280;20145;43.118;25.694;2023-05-07T06:06:40;99855.22;;;17.83;64.60
33845;BME280;20145;43.118;25.694;2023-05-07T06:09:05;99854.81;;;17.96;65.98
33845;BME280;20145;43.118;25.694;2023-05-07T06:11:31;99863.41;;;17.98;61.88
33845;BME280;20145;43.118;25.694;2023-05-07T06:13:57;99862.72;;;17.93;60.49
33845;BME280;20145;43.118;25.694;2023-05-07T06:16:24;99861.38;;;17.82;60.90
33845;BME280;20145;43.118;25.694;2023-05-07T06:18:50;99860.19;;;17.65;62.36
33845;BME280;20145;43.118;25.694;2023-05-07T06:21:15;99860.19;;;17.65;58.81
33845;BME280;20145;43.118;25.694;2023-05-07T06:23:41;99858.69;;;17.84;57.99
33845;BME280;20145;43.118;25.694;2023-05-07T06:26:06;99852.13;;;17.71;58.72
33845;BME280;20145;43.118;25.694;2023-05-07T06:28:32;99845.00;;;17.76;58.91
33845;BME280;20145;43.118;25.694;2023-05-07T06:31:18;99856.63;;;17.94;59.21
33845;BME280;20145;43.118;25.694;2023-05-07T06:33:46;99858.56;;;17.87;58.61
33845;BME280;20145;43.118;25.694;2023-05-07T06:36:11;99865.19;;;17.71;58.26
33845;BME280;20145;43.118;25.694;2023-05-07T06:38:37;99865.88;;;17.76;57.84
33845;BME280;20145;43.118;25.694;2023-05-07T06:41:02;99864.16;;;17.76;57.66
33845;BME280;20145;43.118;25.694;2023-05-07T06:43:28;99862.00;;;17.89;57.85
33845;BME280;20145;43.118;25.694;2023-05-07T06:45:53;99860.53;;;18.05;56.46
33845;BME280;20145;43.118;25.694;2023-05-07T06:48:19;99858.19;;;18.23;55.18
33845;BME280;20145;43.118;25.694;2023-05-07T06:50:45;99863.69;;;18.39;54.75
33845;BME280;20145;43.118;25.694;2023-05-07T06:53:11;99843.81;;;18.58;55.45
33845;BME280;20145;43.118;25.694;2023-05-07T06:55:36;99855.91;;;18.84;57.10
33845;BME280;20145;43.118;25.694;2023-05-07T06:58:03;99858.44;;;18.87;55.75
33845;BME280;20145;43.118;25.694;2023-05-07T07:00:29;99853.06;;;18.67;56.83
33845;BME280;20145;43.118;25.694;2023-05-07T07:02:56;99858.88;;;18.75;58.30
33845;BME280;20145;43.118;25.694;2023-05-07T07:05:21;99856.16;;;19.00;55.81
33845;BME280;20145;43.118;25.694;2023-05-07T07:07:47;99855.16;;;19.04;55.13
33845;BME280;20145;43.118;25.694;2023-05-07T07:10:23;99865.34;;;18.88;53.83
33845;BME280;20145;43.118;25.694;2023-05-07T07:12:50;99860.13;;;18.88;53.55
33845;BME280;20145;43.118;25.694;2023-05-07T07:15:16;99861.13;;;18.84;55.30
33845;BME280;20145;43.118;25.694;2023-05-07T07:17:42;99852.09;;;18.93;54.58
33845;BME280;20145;43.118;25.694;2023-05-07T07:20:08;99858.22;;;18.92;55.11
33845;BME280;20145;43.118;25.694;2023-05-07T07:22:33;99863.72;;;19.08;53.74
33845;BME280;20145;43.118;25.694;2023-05-07T07:24:59;99857.81;;;19.25;54.37
33845;BME280;20145;43.118;25.694;2023-05-07T07:27:24;99856.19;;;19.43;53.47
33845;BME280;20145;43.118;25.694;2023-05-07T07:29:50;99856.50;;;19.57;53.02
33845;BME280;20145;43.118;25.694;2023-05-07T07:32:16;99858.72;;;19.46;49.65
33845;BME280;20145;43.118;25.694;2023-05-07T07:34:41;99857.47;;;19.54;49.93
33845;BME280;20145;43.118;25.694;2023-05-07T07:37:07;99864.00;;;19.65;50.32
33845;BME280;20145;43.118;25.694;2023-05-07T07:39:32;99846.19;;;19.74;48.58
33845;BME280;20145;43.118;25.694;2023-05-07T07:41:58;99867.84;;;19.98;48.29
33845;BME280;20145;43.118;25.694;2023-05-07T07:44:24;99867.44;;;20.08;47.71
33845;BME280;20145;43.118;25.694;2023-05-07T07:46:49;99865.75;;;20.07;43.75
33845;BME280;20145;43.118;25.694;2023-05-07T07:49:16;99863.97;;;20.07;46.58
33845;BME280;20145;43.118;25.694;2023-05-07T07:51:42;99875.81;;;20.16;46.69
33845;BME280;20145;43.118;25.694;2023-05-07T07:54:07;99869.97;;;20.09;45.52
33845;BME280;20145;43.118;25.694;2023-05-07T07:56:33;99861.78;;;20.17;48.49
33845;BME280;20145;43.118;25.694;2023-05-07T07:58:59;99877.22;;;20.04;42.57
33845;BME280;20145;43.118;25.694;2023-05-07T08:01:25;99864.25;;;19.80;44.17
33845;BME280;20145;43.118;25.694;2023-05-07T08:03:51;99871.19;;;20.02;45.33
33845;BME280;20145;43.118;25.694;2023-05-07T08:06:17;99863.66;;;20.15;45.07
33845;BME280;20145;43.118;25.694;2023-05-07T08:08:42;99866.50;;;20.29;44.02
33845;BME280;20145;43.118;25.694;2023-05-07T08:11:08;99865.00;;;20.42;42.74
33845;BME280;20145;43.118;25.694;2023-05-07T08:13:34;99861.44;;;20.24;40.37
33845;BME280;20145;43.118;25.694;2023-05-07T08:16:00;99859.81;;;20.22;43.26
33845;BME280;20145;43.118;25.694;2023-05-07T08:18:25;99846.53;;;20.26;42.84
33845;BME280;20145;43.118;25.694;2023-05-07T08:20:53;99847.38;;;20.46;43.06
33845;BME280;20145;43.118;25.694;2023-05-07T08:23:20;99858.88;;;20.43;41.71
33845;BME280;20145;43.118;25.694;2023-05-07T08:25:46;99842.97;;;20.27;43.18
33845;BME280;20145;43.118;25.694;2023-05-07T08:28:11;99843.47;;;20.36;41.93
33845;BME280;20145;43.118;25.694;2023-05-07T08:30:37;99842.69;;;20.34;38.80
33845;BME280;20145;43.118;25.694;2023-05-07T08:33:03;99836.94;;;20.25;40.34
33845;BME280;20145;43.118;25.694;2023-05-07T08:35:28;99838.22;;;20.36;42.23
33845;BME280;20145;43.118;25.694;2023-05-07T08:37:54;99837.44;;;20.34;41.79
33845;BME280;20145;43.118;25.694;2023-05-07T08:40:22;99842.94;;;20.48;41.95
33845;BME280;20145;43.118;25.694;2023-05-07T08:42:52;99834.81;;;20.54;42.61
33845;BME280;20145;43.118;25.694;2023-05-07T08:45:19;99840.25;;;20.68;42.03
33845;BME280;20145;43.118;25.694;2023-05-07T08:47:56;99840.41;;;20.65;41.09
33845;BME280;20145;43.118;25.694;2023-05-07T08:50:23;99824.09;;;20.59;44.33
33845;BME280;20145;43.118;25.694;2023-05-07T08:52:49;99829.47;;;20.56;41.11
33845;BME280;20145;43.118;25.694;2023-05-07T08:55:15;99833.44;;;20.64;42.39
33845;BME280;20145;43.118;25.694;2023-05-07T08:57:40;99831.47;;;20.69;42.49
33845;BME280;20145;43.118;25.694;2023-05-07T09:00:06;99823.69;;;20.68;41.02
33845;BME280;20145;43.118;25.694;2023-05-07T09:02:34;99815.06;;;20.83;41.94
33845;BME280;20145;43.118;25.694;2023-05-07T09:05:00;99826.56;;;20.81;40.48
33845;BME280;20145;43.118;25.694;2023-05-07T09:07:26;99831.06;;;20.60;40.03
33845;BME280;20145;43.118;25.694;2023-05-07T09:09:52;99824.84;;;20.42;40.89
33845;BME280;20145;43.118;25.694;2023-05-07T09:12:21;99817.59;;;20.28;39.88
33845;BME280;20145;43.118;25.694;2023-05-07T09:14:46;99823.34;;;20.36;41.58
33845;BME280;20145;43.118;25.694;2023-05-07T09:17:12;99822.03;;;20.46;41.88
33845;BME280;20145;43.118;25.694;2023-05-07T09:19:38;99822.72;;;20.50;41.93
33845;BME280;20145;43.118;25.694;2023-05-07T09:22:05;99827.69;;;20.56;41.22
33845;BME280;20145;43.118;25.694;2023-05-07T09:24:32;99823.50;;;20.52;41.27
33845;BME280;20145;43.118;25.694;2023-05-07T09:27:03;99817.94;;;20.60;42.21
33845;BME280;20145;43.118;25.694;2023-05-07T09:29:29;99813.09;;;20.69;42.35
33845;BME280;20145;43.118;25.694;2023-05-07T09:31:56;99819.13;;;20.71;40.43
33845;BME280;20145;43.118;25.694;2023-05-07T09:34:21;99809.75;;;20.85;43.06
33845;BME280;20145;43.118;25.694;2023-05-07T09:36:47;99807.53;;;20.94;44.00
33845;BME280;20145;43.118;25.694;2023-05-07T09:39:13;99802.28;;;20.94;43.17
33845;BME280;20145;43.118;25.694;2023-05-07T09:41:48;99798.28;;;20.87;41.41
33845;BME280;20145;43.118;25.694;2023-05-07T09:44:20;99799.66;;;20.94;41.04
33845;BME280;20145;43.118;25.694;2023-05-07T09:46:48;99805.09;;;21.09;40.19
33845;BME280;20145;43.118;25.694;2023-05-07T09:49:23;99794.31;;;21.15;41.04
33845;BME280;20145;43.118;25.694;2023-05-07T09:51:51;99801.75;;;21.05;39.25
33845;BME280;20145;43.118;25.694;2023-05-07T09:54:18;99796.94;;;21.15;41.31
33845;BME280;20145;43.118;25.694;2023-05-07T09:56:48;99794.06;;;21.20;40.74
33845;BME280;20145;43.118;25.694;2023-05-07T09:59:16;99798.44;;;21.38;43.41
33845;BME280;20145;43.118;25.694;2023-05-07T10:01:43;99791.63;;;21.51;42.11
33845;BME280;20145;43.118;25.694;2023-05-07T10:04:09;99787.59;;;21.61;43.16
33845;BME280;20145;43.118;25.694;2023-05-07T10:06:36;99786.91;;;21.58;39.78
33845;BME280;20145;43.118;25.694;2023-05-07T10:09:03;99777.81;;;21.48;40.29
33845;BME280;20145;43.118;25.694;2023-05-07T10:11:32;99779.09;;;21.74;42.32
33845;BME280;20145;43.118;25.694;2023-05-07T10:13:59;99771.94;;;21.93;42.90
33845;BME280;20145;43.118;25.694;2023-05-07T10:16:27;99767.13;;;22.01;43.53
33845;BME280;20145;43.118;25.694;2023-05-07T10:18:55;99773.00;;;22.07;39.76
33845;BME280;20145;43.118;25.694;2023-05-07T10:21:23;99769.66;;;22.03;39.41
33845;BME280;20145;43.118;25.694;2023-05-07T10:24:00;99767.94;;;21.86;40.16
33845;BME280;20145;43.118;25.694;2023-05-07T10:26:30;99762.16;;;21.79;40.75
33845;BME280;20145;43.118;25.694;2023-05-07T10:29:02;99757.91;;;21.77;39.01
33845;BME280;20145;43.118;25.694;2023-05-07T10:34:08;99750.47;;;21.85;40.28
33845;BME280;20145;43.118;25.694;2023-05-07T10:36:36;99747.34;;;21.94;40.71
33845;BME280;20145;43.118;25.694;2023-05-07T10:39:02;99738.63;;;21.94;41.40
33845;BME280;20145;43.118;25.694;2023-05-07T10:41:28;99744.94;;;21.74;39.38
33845;BME280;20145;43.118;25.694;2023-05-07T10:43:53;99742.19;;;21.59;39.34
33845;BME280;20145;43.118;25.694;2023-05-07T10:46:20;99742.22;;;21.75;41.37
33845;BME280;20145;43.118;25.694;2023-05-07T10:51:32;99746.69;;;21.91;39.76
33845;BME280;20145;43.118;25.694;2023-05-07T10:56:35;99743.72;;;21.64;41.21
33845;BME280;20145;43.118;25.694;2023-05-07T11:01:54;99744.66;;;21.63;39.98
33845;BME280;20145;43.118;25.694;2023-05-07T11:04:20;99741.06;;;21.48;39.58
33845;BME280;20145;43.118;25.694;2023-05-07T11:15:12;99717.66;;;21.76;40.70
33845;BME280;20145;43.118;25.694;2023-05-07T11:17:55;99735.84;;;21.97;39.13
33845;BME280;20145;43.118;25.694;2023-05-07T11:20:21;99722.22;;;22.06;39.75
33845;BME280;20145;43.118;25.694;2023-05-07T11:28:28;99719.28;;;21.95;38.92
33845;BME280;20145;43.118;25.694;2023-05-07T11:30:54;99716.00;;;22.07;39.48
33845;BME280;20145;43.118;25.694;2023-05-07T11:33:19;99713.03;;;22.13;39.86
33845;BME280;20145;43.118;25.694;2023-05-07T11:35:45;99709.25;;;22.19;38.81
33845;BME280;20145;43.118;25.694;2023-05-07T11:38:12;99719.59;;;22.22;36.56
33845;BME280;20145;43.118;25.694;2023-05-07T11:40:51;99714.94;;;22.27;36.58
33845;BME280;20145;43.118;25.694;2023-05-07T11:43:17;99716.06;;;22.23;35.00
33845;BME280;20145;43.118;25.694;2023-05-07T11:45:44;99712.41;;;22.25;36.90
33845;BME280;20145;43.118;25.694;2023-05-07T11:48:10;99715.47;;;22.34;36.59
33845;BME280;20145;43.118;25.694;2023-05-07T11:50:35;99698.41;;;22.41;37.24
33845;BME280;20145;43.118;25.694;2023-05-07T11:53:07;99697.72;;;22.53;36.93
33845;BME280;20145;43.118;25.694;2023-05-07T11:55:33;99706.63;;;22.51;37.06
33845;BME280;20145;43.118;25.694;2023-05-07T11:57:58;99692.31;;;22.40;36.11
33845;BME280;20145;43.118;25.694;2023-05-07T12:00:24;99681.28;;;22.34;36.90
33845;BME280;20145;43.118;25.694;2023-05-07T12:02:50;99687.63;;;22.45;37.33
33845;BME280;20145;43.118;25.694;2023-05-07T12:05:15;99689.19;;;22.64;37.47
33845;BME280;20145;43.118;25.694;2023-05-07T12:07:41;99687.44;;;22.64;36.93
33845;BME280;20145;43.118;25.694;2023-05-07T12:10:07;99700.59;;;22.64;36.63
33845;BME280;20145;43.118;25.694;2023-05-07T12:12:40;99690.50;;;22.57;36.73
33845;BME280;20145;43.118;25.694;2023-05-07T12:15:07;99661.81;;;22.52;36.63
33845;BME280;20145;43.118;25.694;2023-05-07T12:17:33;99669.34;;;22.58;37.65
33845;BME280;20145;43.118;25.694;2023-05-07T12:20:00;99678.59;;;22.65;36.63
33845;BME280;20145;43.118;25.694;2023-05-07T12:22:26;99671.91;;;22.60;37.22
33845;BME280;20145;43.118;25.694;2023-05-07T12:25:00;99671.91;;;22.60;37.28
33845;BME280;20145;43.118;25.694;2023-05-07T12:27:26;99668.16;;;22.64;36.79
33845;BME280;20145;43.118;25.694;2023-05-07T12:29:52;99660.03;;;22.53;36.50
33845;BME280;20145;43.118;25.694;2023-05-07T12:32:19;99665.47;;;22.49;36.95
33845;BME280;20145;43.118;25.694;2023-05-07T12:34:46;99659.84;;;22.56;36.42
33845;BME280;20145;43.118;25.694;2023-05-07T12:37:12;99661.28;;;22.61;36.42
33845;BME280;20145;43.118;25.694;2023-05-07T12:39:38;99660.94;;;22.67;36.81
33845;BME280;20145;43.118;25.694;2023-05-07T12:42:04;99648.63;;;22.68;36.27
33845;BME280;20145;43.118;25.694;2023-05-07T12:44:32;99620.72;;;22.65;36.41
33845;BME280;20145;43.118;25.694;2023-05-07T12:47:01;99641.09;;;22.92;37.07
33845;BME280;20145;43.118;25.694;2023-05-07T12:49:27;99640.47;;;23.03;36.39
33845;BME280;20145;43.118;25.694;2023-05-07T12:51:53;99647.06;;;23.10;35.80
33845;BME280;20145;43.118;25.694;2023-05-07T12:54:37;99653.09;;;23.26;35.78
33845;BME280;20145;43.118;25.694;2023-05-07T12:57:08;99647.06;;;23.24;34.98
33845;BME280;20145;43.118;25.694;2023-05-07T12:59:36;99645.00;;;23.15;34.86
33845;BME280;20145;43.118;25.694;2023-05-07T13:02:02;99644.91;;;23.16;35.90
33845;BME280;20145;43.118;25.694;2023-05-07T13:04:27;99640.13;;;23.09;35.31
33845;BME280;20145;43.118;25.694;2023-05-07T13:06:53;99637.56;;;23.07;35.14
33845;BME280;20145;43.118;25.694;2023-05-07T13:09:18;99642.66;;;23.10;35.00
33845;BME280;20145;43.118;25.694;2023-05-07T13:11:44;99644.63;;;23.07;36.34
33845;BME280;20145;43.118;25.694;2023-05-07T13:14:10;99645.94;;;23.14;34.96